Time;durP1;ratioP1;P1;durP2;ratioP2;P2;SDS_P1;SDS_P2;PMS_P1;PMS_P2;Temp;Humidity;BMP_temperature;BMP_pressure;BME280_temperature;BME280_humidity;BME280_pressure;Samples;Min_cycle;Max_cycle;Signal;HPM_P1;HPM_P2
2022/01/24 00:00:38;;;;;;;1.77;1.53;;;;;;;7.00;100.00;102907.53;5010847;28;20447;-70
2022/01/24 00:03:06;;;;;;;0.70;0.70;;;;;;;7.00;100.00;102912.09;5010451;28;20452;-69
2022/01/24 00:05:33;;;;;;;0.40;0.30;;;;;;;7.00;100.00;102912.91;5007399;28;20465;-70
2022/01/24 00:07:59;;;;;;;0.40;0.30;;;;;;;7.07;100.00;102907.47;5005799;28;20441;-70
2022/01/24 00:10:27;;;;;;;3.93;3.60;;;;;;;7.08;100.00;102906.41;5002119;28;20448;-70
2022/01/24 00:13:13;;;;;;;0.40;0.30;;;;;;;7.08;100.00;102909.09;4995812;28;20878;-70
2022/01/24 00:15:58;;;;;;;0.40;0.30;;;;;;;7.03;100.00;102912.44;4994470;28;20473;-70
2022/01/24 00:18:34;;;;;;;0.40;0.27;;;;;;;7.01;100.00;102916.44;4995795;28;20452;-69
2022/01/24 00:26:47;;;;;;;0.40;0.30;;;;;;;7.00;100.00;102909.41;4991913;28;20542;-69
2022/01/24 00:29:15;;;;;;;0.40;0.30;;;;;;;7.00;100.00;102909.41;4992055;28;20445;-70
2022/01/24 00:31:43;;;;;;;0.40;0.30;;;;;;;7.00;100.00;102909.41;5006907;28;20448;-69
2022/01/24 00:34:09;;;;;;;0.40;0.20;;;;;;;6.97;100.00;102904.44;4997630;28;20965;-70
2022/01/24 00:36:37;;;;;;;0.40;0.20;;;;;;;6.96;100.00;102902.78;5004239;28;20483;-69
2022/01/24 00:39:06;;;;;;;0.40;0.30;;;;;;;6.95;100.00;102909.19;4992110;28;20453;-70
2022/01/24 00:41:41;;;;;;;0.40;0.30;;;;;;;6.96;100.00;102905.50;4996359;28;20451;-70
2022/01/24 00:44:30;;;;;;;0.40;0.30;;;;;;;6.96;100.00;102905.50;4996782;28;20469;-69
2022/01/24 00:47:02;;;;;;;0.40;0.30;;;;;;;7.01;100.00;102913.72;4990961;28;20916;-70
2022/01/24 00:49:47;;;;;;;0.40;0.30;;;;;;;7.00;100.00;102912.91;4999342;28;20493;-70
2022/01/24 00:54:57;;;;;;;0.40;0.30;;;;;;;7.00;100.00;102910.22;4991886;28;20453;-70
2022/01/24 00:57:23;;;;;;;0.40;0.30;;;;;;;7.03;100.00;102914.31;4994643;28;21019;-70
2022/01/24 00:59:50;;;;;;;0.40;0.30;;;;;;;7.02;100.00;102916.19;5000871;28;20449;-70
2022/01/24 01:02:20;;;;;;;0.40;0.20;;;;;;;7.05;100.00;102910.38;4990923;28;20452;-70
2022/01/24 01:05:02;;;;;;;0.40;0.27;;;;;;;7.08;100.00;102914.50;4990759;28;20516;-71
2022/01/24 01:07:35;;;;;;;0.40;0.30;;;;;;;7.11;100.00;102907.84;4993754;28;20460;-71
2022/01/24 01:18:16;;;;;;;0.40;0.20;;;;;;;7.04;100.00;102910.63;5003761;28;20460;-72
2022/01/24 01:21:06;;;;;;;0.40;0.20;;;;;;;7.06;100.00;102911.19;5001596;28;20957;-71
2022/01/24 01:23:36;;;;;;;0.40;0.30;;;;;;;7.08;100.00;102911.78;4996808;28;20463;-70
2022/01/24 01:26:06;;;;;;;0.40;0.20;;;;;;;7.06;100.00;102913.91;5011049;28;20551;-71
2022/01/24 01:28:33;;;;;;;0.40;0.30;;;;;;;7.02;100.00;102910.00;4994180;28;20437;-71
2022/01/24 01:31:10;;;;;;;0.40;0.30;;;;;;;7.04;100.00;102914.13;5008079;28;20466;-71
2022/01/24 01:33:50;;;;;;;0.40;0.30;;;;;;;6.97;100.00;102904.44;5004263;28;20447;-70
2022/01/24 01:36:22;;;;;;;0.73;0.60;;;;;;;6.98;100.00;102906.91;5002351;28;20556;-71
2022/01/24 01:52:46;;;;;;;0.40;0.30;;;;;;;7.06;100.00;102906.63;5009257;28;20821;-71
2022/01/24 01:55:25;;;;;;;0.40;0.20;;;;;;;7.10;100.00;102914.28;4988185;28;20452;-71
2022/01/24 01:57:52;;;;;;;0.40;0.30;;;;;;;7.11;100.00;102913.25;4995757;28;20477;-71
2022/01/24 02:00:18;;;;;;;0.40;0.30;;;;;;;7.08;100.00;102914.50;4995747;28;20460;-71
2022/01/24 02:02:46;;;;;;;0.40;0.30;;;;;;;7.10;100.00;102917.81;4993590;28;20511;-71
2022/01/24 02:05:15;;;;;;;0.40;0.30;;;;;;;7.07;100.00;102915.53;4994369;28;20900;-72
2022/01/24 02:07:48;;;;;;;0.40;0.30;;;;;;;7.08;100.00;102909.94;4987665;28;20451;-70
2022/01/24 02:10:16;;;;;;;0.40;0.20;;;;;;;7.07;100.00;102902.06;5004867;28;20449;-71
2022/01/24 02:12:43;;;;;;;0.40;0.30;;;;;;;7.05;100.00;102904.16;4993428;28;20487;-71
2022/01/24 02:15:11;;;;;;;3.33;3.13;;;;;;;6.99;100.00;102907.72;4993385;28;20437;-71
2022/01/24 02:17:48;;;;;;;0.40;0.30;;;;;;;6.99;100.00;102900.47;4993316;28;20548;-71
2022/01/24 02:20:38;;;;;;;0.40;0.30;;;;;;;6.99;100.00;102902.34;4992745;28;20437;-71
2022/01/24 02:25:58;;;;;;;0.40;0.23;;;;;;;6.99;100.00;102899.63;4982568;28;20472;-71
2022/01/24 02:28:27;;;;;;;0.40;0.30;;;;;;;6.99;100.00;102899.63;4993173;28;20449;-71
2022/01/24 02:31:06;;;;;;;0.40;0.30;;;;;;;7.00;100.00;102898.63;4992951;28;20939;-71
2022/01/24 02:33:33;;;;;;;0.50;0.50;;;;;;;6.97;100.00;102893.66;4993191;28;20433;-71
2022/01/24 02:36:00;;;;;;;0.50;0.40;;;;;;;6.94;100.00;102894.91;4992802;28;20464;-71
2022/01/24 02:38:39;;;;;;;0.40;0.30;;;;;;;6.95;100.00;102890.34;4993095;28;20445;-71
2022/01/24 02:49:34;;;;;;;0.40;0.30;;;;;;;6.95;100.00;102898.44;4972422;28;20451;-72
2022/01/24 02:52:05;;;;;;;0.40;0.30;;;;;;;6.93;100.00;102897.84;4992928;28;20449;-72
2022/01/24 02:54:34;;;;;;;0.40;0.30;;;;;;;6.93;100.00;102889.75;4992922;28;20502;-72
2022/01/24 02:57:01;;;;;;;0.40;0.30;;;;;;;6.90;100.00;102891.00;4992418;28;20492;-71
2022/01/24 02:59:28;;;;;;;0.40;0.30;;;;;;;6.91;100.00;102889.16;4992760;28;20829;-71
2022/01/24 03:01:55;;;;;;;0.40;0.20;;;;;;;6.88;100.00;102887.72;5001809;28;20467;-71
2022/01/24 03:04:22;;;;;;;21.60;9.07;;;;;;;6.88;100.00;102887.72;5011724;28;20529;-71
2022/01/24 03:06:48;;;;;;;0.70;0.67;;;;;;;6.87;100.00;102890.63;5008012;28;20461;-71
2022/01/24 03:09:15;;;;;;;0.40;0.30;;;;;;;6.89;100.00;102883.16;4992608;28;20453;-71
2022/01/24 03:12:00;;;;;;;0.40;0.30;;;;;;;6.90;100.00;102885.63;5008901;28;20452;-71
2022/01/24 03:14:28;;;;;;;0.40;0.30;;;;;;;6.82;100.00;102888.59;4986426;28;20806;-71
2022/01/24 03:16:55;;;;;;;0.50;0.40;;;;;;;6.86;100.00;102878.19;5008105;28;20885;-71
2022/01/24 03:19:22;;;;;;;0.40;0.30;;;;;;;6.86;100.00;102875.50;5012120;28;20509;-72
2022/01/24 03:21:48;;;;;;;0.40;0.30;;;;;;;6.81;100.00;102878.84;4995127;28;20441;-71
2022/01/24 03:24:16;;;;;;;0.40;0.30;;;;;;;6.79;100.00;102879.09;5000479;28;21039;-71
2022/01/24 03:26:44;;;;;;;3.33;1.50;;;;;;;6.83;100.00;102880.28;4976830;28;20468;-70
2022/01/24 03:29:10;;;;;;;0.40;0.20;;;;;;;6.85;100.00;102876.56;4996698;28;20448;-71
2022/01/24 03:31:38;;;;;;;0.40;0.30;;;;;;;6.81;100.00;102876.97;5008449;28;20527;-71
2022/01/24 03:34:04;;;;;;;0.57;0.57;;;;;;;6.84;100.00;102875.72;5011767;28;20444;-71
2022/01/24 03:36:31;;;;;;;0.40;0.30;;;;;;;6.80;100.00;102874.50;4997079;28;20510;-71
2022/01/24 03:38:57;;;;;;;0.40;0.30;;;;;;;6.79;100.00;102880.94;4996360;28;20448;-73
2022/01/24 03:41:24;;;;;;;0.40;0.30;;;;;;;6.83;100.00;102888.38;5006865;28;21015;-71
2022/01/24 03:43:52;;;;;;;0.40;0.30;;;;;;;6.86;100.00;102888.97;4998977;28;20873;-69
2022/01/24 03:46:27;;;;;;;0.40;0.30;;;;;;;6.85;100.00;102888.16;4999730;28;20508;-70
2022/01/24 03:49:06;;;;;;;0.40;0.30;;;;;;;6.85;100.00;102890.84;4992168;28;20429;-70
2022/01/24 03:51:33;;;;;;;0.40;0.30;;;;;;;6.86;100.00;102891.66;4994047;28;20443;-69
2022/01/24 03:54:01;;;;;;;0.40;0.30;;;;;;;6.88;100.00;102897.66;4998689;28;20953;-72
2022/01/24 03:56:28;;;;;;;0.40;0.30;;;;;;;6.88;100.00;102903.06;5008998;28;20478;-70
2022/01/24 03:58:55;;;;;;;0.40;0.30;;;;;;;6.89;100.00;102902.84;4992921;28;20451;-70
2022/01/24 04:01:22;;;;;;;0.40;0.30;;;;;;;6.90;100.00;102903.66;5011141;28;20868;-70
2022/01/24 04:03:48;;;;;;;0.40;0.30;;;;;;;6.88;100.00;102908.44;5006416;28;20474;-70
2022/01/24 04:06:15;;;;;;;0.40;0.30;;;;;;;6.77;100.00;102901.88;4991671;28;20542;-70
2022/01/24 04:08:41;;;;;;;0.50;0.50;;;;;;;6.80;100.00;102893.38;4992618;28;20922;-73
2022/01/24 04:11:11;;;;;;;0.40;0.40;;;;;;;6.84;100.00;102897.28;5002209;28;20456;-74
2022/01/24 04:13:41;;;;;;;0.40;0.30;;;;;;;6.84;100.00;102894.59;5011297;28;20431;-73
2022/01/24 04:16:25;;;;;;;0.40;0.30;;;;;;;6.86;100.00;102897.06;5009455;28;20478;-71
2022/01/24 04:18:57;;;;;;;0.40;0.30;;;;;;;6.85;100.00;102901.63;5002931;28;20930;-69
2022/01/24 04:21:27;;;;;;;0.40;0.30;;;;;;;6.79;100.00;102905.19;5003314;28;20452;-69
2022/01/24 04:23:59;;;;;;;0.50;0.50;;;;;;;6.81;100.00;102895.00;4980738;28;20528;-70
2022/01/24 04:26:26;;;;;;;0.40;0.30;;;;;;;6.76;100.00;102895.66;5002411;28;20509;-69
2022/01/24 04:28:52;;;;;;;0.40;0.30;;;;;;;6.75;100.00;102891.34;5010797;28;20452;-70
2022/01/24 04:31:22;;;;;;;0.40;0.30;;;;;;;6.73;100.00;102895.28;5000325;28;20476;-70
2022/01/24 04:33:49;;;;;;;0.40;0.27;;;;;;;6.66;100.00;102898.03;4991414;28;20453;-70
2022/01/24 04:36:16;;;;;;;0.40;0.30;;;;;;;6.68;100.00;102900.50;4991369;28;20465;-70
2022/01/24 04:38:43;;;;;;;0.40;0.30;;;;;;;6.68;100.00;102893.22;4991322;28;20484;-69
2022/01/24 04:41:16;;;;;;;0.40;0.30;;;;;;;6.65;100.00;102890.19;4991364;28;20492;-70
2022/01/24 04:43:57;;;;;;;0.40;0.30;;;;;;;6.66;100.00;102894.50;4990398;28;20468;-70
2022/01/24 04:52:10;;;;;;;0.40;0.20;;;;;;;6.56;100.00;102898.50;4991074;28;20405;-70
2022/01/24 04:54:40;;;;;;;0.40;0.20;;;;;;;6.58;100.00;102898.28;4991112;28;20491;-70
2022/01/24 04:57:08;;;;;;;0.40;0.30;;;;;;;6.54;100.00;102897.06;4990684;28;20512;-70
2022/01/24 04:59:35;;;;;;;0.40;0.30;;;;;;;6.52;100.00;102905.38;4991094;28;20853;-70
2022/01/24 05:02:03;;;;;;;0.40;0.30;;;;;;;6.53;100.00;102907.00;4991115;28;20857;-70
2022/01/24 05:04:30;;;;;;;0.40;0.30;;;;;;;6.56;100.00;102906.59;4991019;28;20444;-70
2022/01/24 05:06:56;;;;;;;0.40;0.30;;;;;;;6.58;100.00;102906.34;4990893;28;20845;-70
2022/01/24 05:09:23;;;;;;;0.40;0.30;;;;;;;6.51;100.00;102913.69;4990603;28;20934;-72
2022/01/24 05:11:54;;;;;;;0.40;0.30;;;;;;;6.52;100.00;102905.38;4990733;28;20464;-70
2022/01/24 05:25:19;;;;;;;0.40;0.30;;;;;;;6.39;100.00;102900.06;4990483;28;20529;-71
2022/01/24 05:27:45;;;;;;;0.40;0.20;;;;;;;6.39;100.00;102910.81;4990742;28;20441;-71
2022/01/24 05:30:12;;;;;;;0.40;0.30;;;;;;;6.39;100.00;102915.38;4990722;28;20794;-71
2022/01/24 05:32:40;;;;;;;0.40;0.30;;;;;;;6.38;100.00;102903.81;4990681;28;20448;-71
2022/01/24 05:35:07;;;;;;;0.40;0.30;;;;;;;6.39;100.00;102907.31;4990529;28;20445;-71
2022/01/24 05:37:34;;;;;;;0.40;0.30;;;;;;;6.41;100.00;102916.81;4990358;28;20449;-72
2022/01/24 05:40:01;;;;;;;0.40;0.30;;;;;;;6.44;100.00;102923.63;4990450;28;20949;-72
2022/01/24 05:42:27;;;;;;;0.40;0.30;;;;;;;6.39;100.00;102920.78;4990236;28;20962;-72
2022/01/24 05:44:54;;;;;;;0.40;0.20;;;;;;;6.39;100.00;102926.97;4990509;28;20493;-72
2022/01/24 05:47:20;;;;;;;0.40;0.20;;;;;;;6.39;100.00;102923.47;4990551;28;20461;-72
2022/01/24 05:49:48;;;;;;;0.40;0.30;;;;;;;6.41;100.00;102918.69;4990400;28;20444;-72
2022/01/24 05:52:14;;;;;;;0.40;0.30;;;;;;;6.37;100.00;102923.66;4990530;28;20861;-72
2022/01/24 05:54:42;;;;;;;0.40;0.30;;;;;;;6.31;100.00;102919.97;4990368;28;20449;-71
2022/01/24 05:57:10;;;;;;;0.40;0.30;;;;;;;6.33;100.00;102927.84;4994740;28;20989;-71
2022/01/24 05:59:36;;;;;;;0.40;0.20;;;;;;;6.36;100.00;102923.88;4993826;28;20444;-71
2022/01/24 06:02:04;;;;;;;0.40;0.20;;;;;;;6.36;100.00;102926.56;4993405;28;20960;-71
2022/01/24 06:04:30;;;;;;;0.40;0.20;;;;;;;6.32;100.00;102926.16;4993570;28;20445;-71
2022/01/24 06:06:58;;;;;;;0.40;0.30;;;;;;;6.26;100.00;102925.16;4993634;28;20469;-71
2022/01/24 06:09:25;;;;;;;0.40;0.20;;;;;;;6.26;100.00;102921.66;4993606;28;20451;-70
2022/01/24 06:11:52;;;;;;;0.40;0.30;;;;;;;6.26;100.00;102922.47;4993267;28;20801;-71
2022/01/24 06:14:19;;;;;;;1.37;1.27;;;;;;;6.26;100.00;102927.88;4993567;28;20447;-72
2022/01/24 06:16:45;;;;;;;0.40;0.30;;;;;;;6.26;100.00;102932.44;4993460;28;20457;-72
2022/01/24 06:19:11;;;;;;;0.40;0.30;;;;;;;6.18;100.00;102935.34;4993496;28;20456;-72
2022/01/24 06:21:38;;;;;;;0.40;0.30;;;;;;;6.20;100.00;102928.72;4993384;28;20449;-71
2022/01/24 06:24:06;;;;;;;0.40;0.23;;;;;;;6.20;100.00;102931.41;4993183;28;20456;-71
2022/01/24 06:26:33;;;;;;;0.40;0.30;;;;;;;6.15;100.00;102936.59;4993227;28;20485;-71
2022/01/24 06:28:59;;;;;;;0.40;0.30;;;;;;;6.15;100.00;102939.28;4993224;28;20449;-71
2022/01/24 06:31:26;;;;;;;0.40;0.30;;;;;;;6.17;100.00;102939.91;4993310;28;20452;-72
2022/01/24 06:33:52;;;;;;;0.40;0.30;;;;;;;6.14;100.00;102942.19;4993285;28;20452;-71
2022/01/24 06:36:18;;;;;;;0.40;0.20;;;;;;;6.11;100.00;102934.53;4992783;28;20886;-72
2022/01/24 06:38:45;;;;;;;0.40;0.30;;;;;;;6.13;100.00;102935.16;4992592;28;20950;-72
2022/01/24 06:41:19;;;;;;;0.40;0.30;;;;;;;6.15;100.00;102936.59;4993168;28;20445;-71
2022/01/24 06:43:45;;;;;;;0.40;0.20;;;;;;;6.15;100.00;102939.28;4993122;28;20437;-72
2022/01/24 06:46:12;;;;;;;0.40;0.20;;;;;;;6.17;100.00;102939.91;4992944;28;20493;-72
2022/01/24 06:48:38;;;;;;;1.20;1.13;;;;;;;6.19;100.00;102943.19;4992729;28;20946;-72
2022/01/24 06:51:10;;;;;;;0.40;0.30;;;;;;;6.14;100.00;102947.56;4993023;28;20456;-72
2022/01/24 06:53:37;;;;;;;0.40;0.30;;;;;;;6.15;100.00;102952.72;4992731;28;20910;-72
2022/01/24 06:56:03;;;;;;;0.40;0.30;;;;;;;6.13;100.00;102949.44;4992651;28;20491;-72
2022/01/24 06:58:31;;;;;;;0.40;0.30;;;;;;;6.13;100.00;102943.25;4992903;28;20502;-72
2022/01/24 07:00:58;;;;;;;4.27;3.90;;;;;;;6.03;100.00;102951.75;4992784;28;20445;-72
2022/01/24 07:03:24;;;;;;;0.40;0.30;;;;;;;6.11;100.00;102959.59;4992756;28;20841;-72
2022/01/24 07:05:50;;;;;;;0.40;0.30;;;;;;;6.12;100.00;102960.44;4992584;28;20492;-72
2022/01/24 07:08:17;;;;;;;0.40;0.20;;;;;;;6.10;100.00;102960.63;4991913;28;20445;-72
2022/01/24 07:10:43;;;;;;;0.40;0.30;;;;;;;6.15;100.00;102968.06;4992700;28;20445;-72
2022/01/24 07:13:10;;;;;;;0.40;0.30;;;;;;;6.17;100.00;102966.81;4992686;28;20449;-72
2022/01/24 07:15:45;;;;;;;0.40;0.20;;;;;;;6.20;100.00;102961.03;4992565;28;20461;-72
2022/01/24 07:20:56;;;;;;;0.40;0.20;;;;;;;6.24;100.00;102961.41;4972011;28;20448;-72
2022/01/24 07:23:22;;;;;;;0.40;0.30;;;;;;;6.26;100.00;102968.22;4992504;28;20474;-72
2022/01/24 07:25:49;;;;;;;0.40;0.30;;;;;;;6.28;100.00;102960.75;4992290;28;20489;-72
2022/01/24 07:28:16;;;;;;;0.40;0.30;;;;;;;6.27;100.00;102964.50;4992483;28;20467;-72
2022/01/24 07:30:45;;;;;;;0.40;0.30;;;;;;;6.25;100.00;102960.38;4992396;28;20438;-72
2022/01/24 07:33:12;;;;;;;0.40;0.30;;;;;;;6.24;100.00;102964.09;4992353;28;20502;-72
2022/01/24 07:35:38;;;;;;;0.40;0.40;;;;;;;6.23;100.00;102959.75;4992266;28;20472;-72
2022/01/24 07:38:05;;;;;;;0.40;0.30;;;;;;;6.17;100.00;102957.91;4992281;28;20449;-72
2022/01/24 07:40:37;;;;;;;0.40;0.30;;;;;;;6.15;100.00;102962.69;4991928;28;20539;-72
2022/01/24 07:43:10;;;;;;;0.40;0.30;;;;;;;6.18;100.00;102968.47;4991964;28;20898;-72
2022/01/24 07:45:38;;;;;;;0.40;0.20;;;;;;;6.22;100.00;102972.38;4991985;28;20493;-72
2022/01/24 07:48:07;;;;;;;0.40;0.20;;;;;;;6.26;100.00;102964.72;4991855;28;20452;-72
2022/01/24 07:50:35;;;;;;;0.40;0.20;;;;;;;6.32;100.00;102975.44;4992110;28;20441;-74
2022/01/24 07:53:02;;;;;;;0.40;0.20;;;;;;;6.30;100.00;102972.16;4992054;28;20463;-74
2022/01/24 07:55:29;;;;;;;2.10;2.00;;;;;;;6.36;100.00;102975.84;4991754;28;20465;-72
2022/01/24 07:57:56;;;;;;;0.50;0.40;;;;;;;6.36;100.00;102969.66;4992051;28;20494;-71
2022/01/24 08:00:23;;;;;;;0.40;0.30;;;;;;;6.38;100.00;102975.66;4991978;28;20441;-72
2022/01/24 08:02:50;;;;;;;0.40;0.30;;;;;;;6.40;100.00;102970.88;4991885;28;20441;-72
2022/01/24 08:05:17;;;;;;;0.40;0.30;;;;;;;6.41;100.00;102973.34;4991960;28;20502;-72
2022/01/24 08:07:44;;;;;;;0.40;0.30;;;;;;;6.42;100.00;102976.84;4991760;28;20445;-71
2022/01/24 08:10:10;;;;;;;0.50;0.30;;;;;;;6.41;100.00;102970.66;4991763;28;20452;-72
2022/01/24 08:12:38;;;;;;;0.40;0.30;;;;;;;6.47;100.00;102971.69;4991729;28;20445;-72
2022/01/24 08:15:08;;;;;;;0.40;0.30;;;;;;;6.47;100.00;102975.19;4991586;28;20492;-72
2022/01/24 08:17:35;;;;;;;0.40;0.27;;;;;;;6.54;100.00;102972.44;4991561;28;20506;-72
2022/01/24 08:20:01;;;;;;;0.40;0.30;;;;;;;6.56;100.00;102970.38;4991599;28;20458;-72
2022/01/24 08:22:29;;;;;;;0.40;0.30;;;;;;;6.51;100.00;102970.22;4991533;28;20441;-72
2022/01/24 08:24:56;;;;;;;0.40;0.30;;;;;;;6.54;100.00;102972.44;4991575;28;20448;-72
2022/01/24 08:27:25;;;;;;;0.40;0.30;;;;;;;6.58;100.00;102970.97;4991425;28;20488;-72
2022/01/24 08:29:51;;;;;;;0.40;0.30;;;;;;;6.61;100.00;102975.13;4991484;28;20482;-72
2022/01/24 08:32:19;;;;;;;0.40;0.20;;;;;;;6.66;100.00;102978.00;4991460;28;20449;-72
2022/01/24 08:34:45;;;;;;;0.40;0.30;;;;;;;6.71;100.00;102986.25;4991397;28;20566;-72
2022/01/24 08:37:12;;;;;;;1.93;1.83;;;;;;;6.74;100.00;102986.66;4991007;28;20837;-72
2022/01/24 08:39:40;;;;;;;0.40;0.30;;;;;;;6.83;100.00;102981.84;4991350;28;20803;-72
2022/01/24 08:42:15;;;;;;;0.40;0.30;;;;;;;6.85;100.00;102989.69;4991359;28;20429;-72
2022/01/24 08:47:29;;;;;;;0.40;0.30;;;;;;;6.83;100.00;102979.13;4990958;28;20480;-72
2022/01/24 08:49:56;;;;;;;0.40;0.30;;;;;;;6.81;100.00;102976.63;4991297;28;20445;-72
2022/01/24 08:52:23;;;;;;;0.40;0.30;;;;;;;6.82;100.00;102980.19;4991161;28;20464;-72
2022/01/24 08:54:51;;;;;;;0.40;0.30;;;;;;;6.86;100.00;102975.16;4991192;28;20460;-72
2022/01/24 08:57:21;;;;;;;0.40;0.30;;;;;;;6.82;100.00;102974.81;4990756;28;20494;-72
2022/01/24 08:59:48;;;;;;;0.40;0.30;;;;;;;6.86;100.00;102967.91;4991145;28;20433;-76
2022/01/24 09:02:15;;;;;;;0.40;0.27;;;;;;;6.92;100.00;102974.31;4991115;28;20445;-75
2022/01/24 09:04:41;;;;;;;0.40;0.30;;;;;;;7.00;100.00;102987.53;4991078;28;20449;-72
2022/01/24 09:07:09;;;;;;;0.40;0.30;;;;;;;7.01;100.00;102981.09;4990861;28;20484;-71
2022/01/24 09:09:37;;;;;;;0.40;0.30;;;;;;;7.06;100.00;102970.47;4990887;28;20445;-71
2022/01/24 09:12:11;;;;;;;0.40;0.30;;;;;;;6.96;100.00;102980.94;4990900;28;20816;-70
2022/01/24 09:14:38;;;;;;;0.40;0.30;;;;;;;6.98;100.00;102981.53;4990923;28;20444;-70
2022/01/24 09:17:04;;;;;;;0.40;0.30;;;;;;;7.01;100.00;102983.78;4990515;28;20822;-71
2022/01/24 09:19:31;;;;;;;0.40;0.30;;;;;;;7.07;100.00;102972.13;4990820;28;20449;-71
2022/01/24 09:21:57;;;;;;;0.40;0.30;;;;;;;7.15;100.00;102979.94;4990806;28;20449;-72
2022/01/24 09:24:24;;;;;;;0.40;0.20;;;;;;;7.18;100.00;102973.31;4990745;28;20445;-72
2022/01/24 09:26:50;;;;;;;0.40;0.30;;;;;;;7.21;100.00;102973.69;4990526;28;20508;-71
2022/01/24 09:29:18;;;;;;;0.40;0.30;;;;;;;7.20;100.00;102969.34;4990313;28;20864;-71
2022/01/24 09:31:44;;;;;;;0.50;0.40;;;;;;;7.21;100.00;102973.69;4993489;28;20445;-71
2022/01/24 09:34:11;;;;;;;0.40;0.30;;;;;;;7.21;100.00;102973.69;4993773;28;20825;-71
2022/01/24 09:36:37;;;;;;;0.40;0.30;;;;;;;7.23;100.00;102976.16;4993765;28;20875;-74
2022/01/24 09:39:04;;;;;;;0.40;0.30;;;;;;;7.19;100.00;102973.09;4993798;28;20933;-72
2022/01/24 09:41:31;;;;;;;0.40;0.27;;;;;;;7.18;100.00;102968.75;4993654;28;20876;-71
2022/01/24 09:43:57;;;;;;;0.93;0.93;;;;;;;7.23;100.00;102970.78;4994105;28;20494;-71
2022/01/24 09:46:25;;;;;;;0.40;0.30;;;;;;;7.22;100.00;102980.75;4993528;28;20489;-71
2022/01/24 09:48:52;;;;;;;0.40;0.20;;;;;;;7.19;100.00;102981.16;4993941;28;20448;-72
2022/01/24 09:51:34;;;;;;;0.40;0.30;;;;;;;7.21;100.00;102984.44;4993864;28;20504;-71
2022/01/24 09:54:03;;;;;;;0.50;0.30;;;;;;;7.21;100.00;102979.06;4993513;28;20449;-71
2022/01/24 09:56:29;;;;;;;0.40;0.30;;;;;;;7.20;100.00;102977.41;4993487;28;20499;-72
2022/01/24 09:58:56;;;;;;;0.40;0.30;;;;;;;7.19;100.00;102970.38;4993418;28;20465;-69
2022/01/24 10:01:23;;;;;;;0.40;0.30;;;;;;;7.08;100.00;102974.63;4993464;28;20946;-72
2022/01/24 10:07:03;;;;;;;0.40;0.20;;;;;;;7.19;100.00;102978.47;5090584;27;20519;-72
2022/01/24 10:09:31;;;;;;;0.40;0.30;;;;;;;7.14;100.00;102972.09;5090511;28;20502;-72
2022/01/24 10:12:04;;;;;;;0.40;0.20;;;;;;;7.17;100.00;102974.34;5090699;28;20444;-72
2022/01/24 10:17:22;;;;;;;0.70;0.30;;;;;;;7.22;100.00;102972.66;5090397;28;21051;-72
2022/01/24 10:19:51;;;;;;;0.40;0.30;;;;;;;7.26;100.00;102964.94;5090356;28;21019;-72
2022/01/24 10:22:23;;;;;;;0.40;0.30;;;;;;;7.34;100.00;102968.19;5090549;28;20432;-72
2022/01/24 10:24:52;;;;;;;0.40;0.30;;;;;;;7.39;100.00;102974.78;5090197;28;20464;-72
2022/01/24 10:27:23;;;;;;;0.40;0.40;;;;;;;7.32;100.00;102964.88;5090422;28;20495;-72
2022/01/24 10:29:52;;;;;;;0.40;0.30;;;;;;;7.32;100.00;102964.06;5090386;28;20425;-72
2022/01/24 10:32:34;;;;;;;0.40;0.30;;;;;;;7.34;100.00;102957.38;5090206;28;20429;-72
2022/01/24 10:35:23;;;;;;;1.53;1.43;;;;;;;7.39;100.00;102955.91;5090281;28;20425;-72
2022/01/24 10:37:53;;;;;;;0.40;0.30;;;;;;;7.39;100.00;102947.81;5090305;28;20417;-72
2022/01/24 10:40:45;;;;;;;0.40;0.30;;;;;;;7.40;100.00;102950.31;5090249;28;20800;-72
2022/01/24 10:43:19;;;;;;;0.40;0.30;;;;;;;7.51;100.00;102946.06;5090180;28;20429;-72
2022/01/24 10:45:47;;;;;;;0.40;0.30;;;;;;;7.45;100.00;102950.47;5089950;28;20487;-72
2022/01/24 10:48:14;;;;;;;0.40;0.30;;;;;;;7.43;100.00;102954.44;5090095;28;20437;-72
2022/01/24 10:50:41;;;;;;;0.40;0.30;;;;;;;7.43;100.00;102952.56;5090089;28;20436;-72
2022/01/24 10:53:14;;;;;;;0.40;0.30;;;;;;;7.48;100.00;102949.19;5089832;28;20440;-72
2022/01/24 10:55:42;;;;;;;0.40;0.30;;;;;;;7.48;100.00;102943.78;5089861;28;20501;-72
2022/01/24 10:58:13;;;;;;;0.40;0.30;;;;;;;7.47;100.00;102931.38;5089854;28;20437;-72
2022/01/24 11:00:41;;;;;;;0.40;0.30;;;;;;;7.42;100.00;102942.00;5089892;28;20456;-72
2022/01/24 11:03:14;;;;;;;0.40;0.20;;;;;;;7.22;100.00;102943.00;5089460;28;20574;-72
2022/01/24 11:05:43;;;;;;;0.40;0.30;;;;;;;7.17;100.00;102940.16;5089366;28;20575;-72
2022/01/24 11:08:12;;;;;;;0.40;0.30;;;;;;;7.10;100.00;102936.66;5089678;28;20480;-72
2022/01/24 11:10:41;;;;;;;0.40;0.27;;;;;;;7.09;100.00;102940.41;5089644;28;20444;-72
2022/01/24 11:13:09;;;;;;;0.40;0.30;;;;;;;7.17;100.00;102940.16;5089542;28;20444;-72
2022/01/24 11:15:38;;;;;;;1.63;1.53;;;;;;;7.22;100.00;102929.53;5089476;28;20465;-72
2022/01/24 11:18:05;;;;;;;0.40;0.30;;;;;;;7.20;100.00;102928.09;5074861;28;20480;-72
2022/01/24 11:20:34;;;;;;;2.47;2.10;;;;;;;7.21;100.00;102925.16;5074599;28;20950;-72
2022/01/24 11:23:05;;;;;;;0.40;0.30;;;;;;;7.19;100.00;102926.44;5075868;28;20495;-72
2022/01/24 11:25:36;;;;;;;0.40;0.20;;;;;;;7.08;100.00;102926.13;5071400;28;21087;-72
2022/01/24 11:28:03;;;;;;;0.40;0.30;;;;;;;7.01;100.00;102913.72;5055892;28;20442;-72
2022/01/24 11:30:33;;;;;;;0.40;0.30;;;;;;;6.90;100.00;102919.81;5071122;28;20523;-72
2022/01/24 11:33:04;;;;;;;0.40;0.27;;;;;;;6.86;100.00;102911.34;5075086;28;20426;-72
2022/01/24 11:35:34;;;;;;;0.40;0.30;;;;;;;6.85;100.00;102904.31;5074504;28;20973;-72
2022/01/24 11:38:01;;;;;;;0.40;0.30;;;;;;;6.83;100.00;102904.53;5075629;28;20820;-72
2022/01/24 11:40:43;;;;;;;0.40;0.30;;;;;;;6.84;100.00;102905.34;5075609;28;20429;-72
2022/01/24 11:46:07;;;;;;;0.40;0.30;;;;;;;6.66;100.00;102903.41;5091034;28;20530;-72
2022/01/24 11:48:34;;;;;;;0.40;0.20;;;;;;;6.57;100.00;102904.72;5090610;28;20551;-72
2022/01/24 11:51:05;;;;;;;0.40;0.20;;;;;;;6.69;100.00;102905.69;5090028;28;20567;-72
2022/01/24 11:53:34;;;;;;;0.40;0.30;;;;;;;6.76;100.00;102908.31;5090724;28;20433;-72
2022/01/24 11:56:24;;;;;;;0.40;0.30;;;;;;;6.80;100.00;102902.28;5090492;28;20475;-72
2022/01/24 11:58:51;;;;;;;0.40;0.30;;;;;;;6.80;100.00;102896.06;5085698;28;20461;-72
2022/01/24 12:01:40;;;;;;;0.63;0.63;;;;;;;6.86;100.00;102894.34;5070338;28;20446;-72
2022/01/24 12:04:07;;;;;;;0.40;0.20;;;;;;;6.81;100.00;102893.13;5070229;28;20465;-72
2022/01/24 12:07:03;;;;;;;0.40;0.30;;;;;;;6.82;100.00;102900.19;5070174;28;20487;-72
2022/01/24 12:09:29;;;;;;;0.40;0.30;;;;;;;6.80;100.00;102898.75;5057105;28;20460;-72
2022/01/24 12:11:56;;;;;;;0.40;0.30;;;;;;;6.78;100.00;102901.69;5070151;28;20448;-72
2022/01/24 12:14:37;;;;;;;0.40;0.30;;;;;;;6.80;100.00;102899.59;5070128;28;20433;-72
2022/01/24 12:17:09;;;;;;;0.67;0.67;;;;;;;6.81;100.00;102897.72;5070072;28;20464;-72
2022/01/24 12:19:36;;;;;;;0.40;0.30;;;;;;;6.85;100.00;102904.31;5069744;28;20458;-72
2022/01/24 12:22:40;;;;;;;0.40;0.30;;;;;;;6.86;100.00;102900.56;5069985;28;20453;-72
2022/01/24 12:25:09;;;;;;;0.40;0.20;;;;;;;6.82;100.00;102902.06;5069907;28;21088;-73
2022/01/24 12:27:35;;;;;;;0.40;0.30;;;;;;;6.80;100.00;102896.88;5070494;28;20449;-72
2022/01/24 12:30:02;;;;;;;0.40;0.30;;;;;;;6.73;100.00;102895.28;5069935;28;20978;-72
2022/01/24 12:32:28;;;;;;;0.40;0.30;;;;;;;6.71;100.00;102889.28;5069737;28;20467;-72
2022/01/24 12:34:55;;;;;;;0.40;0.30;;;;;;;6.71;100.00;102892.81;5069672;28;20449;-72
2022/01/24 12:37:27;;;;;;;0.40;0.27;;;;;;;6.62;100.00;102882.53;5069521;28;20469;-72
2022/01/24 12:40:03;;;;;;;0.40;0.23;;;;;;;6.62;100.00;102874.44;5069584;28;20816;-72
2022/01/24 12:42:49;;;;;;;0.40;0.30;;;;;;;6.58;100.00;102884.81;5069562;28;20432;-72
2022/01/24 12:48:09;;;;;;;0.40;0.30;;;;;;;6.56;100.00;102874.28;5069284;28;20417;-72
2022/01/24 12:50:35;;;;;;;0.40;0.30;;;;;;;6.58;100.00;102876.75;5069304;28;20445;-72